createdAt,value
2019-02-21T00:01:36.297Z,17.90
2019-02-21T00:04:03.892Z,23.30
2019-02-21T00:06:31.231Z,23.43
2019-02-21T00:08:58.399Z,20.20
2019-02-21T00:11:25.581Z,18.17
2019-02-21T00:13:52.853Z,19.63
2019-02-21T00:16:20.049Z,17.23
2019-02-21T00:18:47.215Z,18.23
2019-02-21T00:21:14.526Z,25.40
2019-02-21T00:23:41.584Z,20.23
2019-02-21T00:26:08.860Z,20.23
2019-02-21T00:28:36.064Z,20.17
2019-02-21T00:31:03.262Z,21.07
2019-02-21T00:33:30.536Z,19.97
2019-02-21T00:35:57.654Z,21.00
2019-02-21T00:38:24.907Z,19.70
2019-02-21T00:40:52.291Z,26.23
2019-02-21T00:43:19.603Z,20.00
2019-02-21T00:45:46.756Z,19.57
2019-02-21T00:48:13.838Z,22.83
2019-02-21T00:50:40.976Z,24.43
2019-02-21T00:53:08.127Z,20.20
2019-02-21T00:55:35.282Z,22.50
2019-02-21T00:58:02.536Z,26.57
2019-02-21T01:00:29.801Z,21.67
2019-02-21T01:02:56.967Z,21.57
2019-02-21T01:05:24.194Z,21.23
2019-02-21T01:07:51.352Z,17.97
2019-02-21T01:10:18.810Z,22.03
2019-02-21T01:12:46.130Z,24.60
2019-02-21T01:15:13.420Z,21.83
2019-02-21T01:17:40.618Z,19.00
2019-02-21T01:20:07.921Z,22.53
2019-02-21T01:22:35.381Z,18.20
2019-02-21T01:25:03.054Z,20.80
2019-02-21T01:27:30.621Z,22.63
2019-02-21T01:29:57.932Z,18.93
2019-02-21T01:32:25.091Z,18.20
2019-02-21T01:34:52.381Z,24.27
2019-02-21T01:37:20.039Z,20.60
2019-02-21T01:39:47.239Z,17.37
2019-02-21T01:42:14.426Z,22.43
2019-02-21T01:44:41.677Z,23.67
2019-02-21T01:47:08.740Z,17.73
2019-02-21T01:49:36.283Z,21.80
2019-02-21T01:52:03.470Z,22.77
2019-02-21T01:54:30.735Z,21.63
2019-02-21T01:56:57.934Z,20.20
2019-02-21T01:59:25.481Z,16.20
2019-02-21T02:01:52.715Z,18.97
2019-02-21T02:04:19.869Z,17.90
2019-02-21T02:06:47.419Z,26.77
2019-02-21T02:09:14.583Z,23.30
2019-02-21T02:11:41.898Z,18.93
2019-02-21T02:14:09.145Z,20.30
2019-02-21T02:16:36.365Z,20.60
2019-02-21T02:19:03.603Z,17.13
2019-02-21T02:21:30.746Z,21.70
2019-02-21T02:23:57.898Z,22.37
2019-02-21T02:26:25.261Z,25.50
2019-02-21T02:28:52.420Z,21.17
2019-02-21T02:31:23.427Z,20.33
2019-02-21T02:33:48.876Z,18.60
2019-02-21T02:36:16.346Z,16.03
2019-02-21T02:38:43.519Z,22.40
2019-02-21T02:41:10.958Z,20.80
2019-02-21T02:43:38.214Z,34.63
2019-02-21T02:46:05.364Z,23.77
2019-02-21T02:48:32.632Z,36.40
2019-02-21T02:50:59.698Z,25.70
2019-02-21T02:53:26.845Z,21.60
2019-02-21T02:55:54.065Z,22.57
2019-02-21T02:58:21.297Z,22.17
2019-02-21T03:00:49.181Z,18.63
2019-02-21T03:03:16.448Z,19.97
2019-02-21T03:05:43.580Z,17.50
2019-02-21T03:08:10.820Z,19.60
2019-02-21T03:10:37.953Z,21.90
2019-02-21T03:13:05.231Z,19.27
2019-02-21T03:15:32.296Z,17.53
2019-02-21T03:17:59.374Z,19.07
2019-02-21T03:20:26.529Z,17.87
2019-02-21T03:22:53.724Z,18.50
2019-02-21T03:25:21.944Z,16.13
2019-02-21T03:27:49.172Z,14.47
2019-02-21T03:30:16.369Z,23.40
2019-02-21T03:32:44.028Z,22.23
2019-02-21T03:35:11.266Z,22.10
2019-02-21T03:37:38.493Z,19.57
2019-02-21T03:40:06.537Z,19.07
2019-02-21T03:42:33.740Z,16.00
2019-02-21T03:45:00.940Z,19.47
2019-02-21T03:47:28.178Z,26.90
2019-02-21T03:49:55.352Z,21.17
2019-02-21T03:52:22.529Z,18.13
2019-02-21T03:54:49.735Z,21.57
2019-02-21T03:57:17.112Z,21.60
2019-02-21T03:59:44.305Z,21.73
2019-02-21T04:02:11.503Z,17.43
2019-02-21T04:04:39.678Z,21.60
2019-02-21T04:07:06.980Z,22.63
2019-02-21T04:09:34.215Z,19.50
2019-02-21T04:12:01.499Z,22.83
2019-02-21T04:14:29.808Z,25.10
2019-02-21T04:16:57.390Z,23.70
2019-02-21T04:19:24.652Z,22.27
2019-02-21T04:21:51.884Z,20.90
2019-02-21T04:24:19.202Z,31.87
2019-02-21T04:26:46.384Z,18.10
2019-02-21T04:29:13.550Z,20.97
2019-02-21T04:31:40.768Z,17.33
2019-02-21T04:34:08.289Z,20.13
2019-02-21T04:36:35.435Z,18.43
2019-02-21T04:39:04.087Z,23.97
2019-02-21T04:41:31.451Z,19.23
2019-02-21T04:43:58.629Z,24.20
2019-02-21T04:46:25.886Z,21.47
2019-02-21T04:48:54.948Z,23.27
2019-02-21T04:51:22.195Z,22.30
2019-02-21T04:53:49.487Z,26.77
2019-02-21T04:56:16.664Z,20.60
2019-02-21T04:58:43.913Z,22.80
2019-02-21T05:01:11.099Z,26.13
2019-02-21T05:03:38.381Z,26.90
2019-02-21T05:06:05.530Z,35.97
2019-02-21T05:08:32.840Z,24.70
2019-02-21T05:11:00.308Z,22.67
2019-02-21T05:13:27.600Z,30.77
2019-02-21T05:15:54.863Z,24.17
2019-02-21T05:18:22.037Z,27.60
2019-02-21T05:20:49.088Z,24.77
2019-02-21T05:23:16.412Z,25.17
2019-02-21T05:25:43.542Z,30.27
2019-02-21T05:28:30.651Z,28.30
2019-02-21T05:31:29.268Z,39.47
2019-02-21T05:34:01.497Z,25.17
2019-02-21T05:36:54.546Z,32.43
2019-02-21T05:39:37.032Z,27.10
2019-02-21T05:42:12.957Z,25.40
2019-02-21T05:44:45.240Z,26.67
2019-02-21T05:47:30.680Z,31.33
2019-02-21T05:50:23.399Z,27.07
2019-02-21T05:53:11.186Z,27.37
2019-02-21T05:55:47.589Z,26.73
2019-02-21T05:58:38.777Z,20.50
2019-02-21T06:01:12.512Z,31.93
2019-02-21T06:03:56.830Z,22.60
2019-02-21T06:06:43.656Z,25.00
2019-02-21T06:09:30.409Z,24.47
2019-02-21T06:12:12.501Z,25.90
2019-02-21T06:15:18.342Z,25.47
2019-02-21T06:18:05.139Z,26.73
2019-02-21T06:20:50.208Z,25.67
2019-02-21T06:23:39.311Z,28.07
2019-02-21T06:26:20.126Z,25.83
2019-02-21T06:28:54.584Z,29.63
2019-02-21T06:31:22.116Z,25.50
2019-02-21T06:33:49.695Z,23.20
2019-02-21T06:36:17.005Z,25.50
2019-02-21T06:38:44.477Z,28.47
2019-02-21T06:41:11.991Z,31.53
2019-02-21T06:43:39.241Z,25.60
2019-02-21T06:46:06.809Z,29.20
2019-02-21T06:48:34.946Z,37.00
2019-02-21T06:51:02.127Z,30.70
2019-02-21T06:53:29.389Z,30.80
2019-02-21T06:55:56.572Z,31.10
2019-02-21T06:58:24.144Z,28.27
2019-02-21T07:00:51.440Z,31.33
2019-02-21T07:03:19.189Z,26.27
2019-02-21T07:05:46.366Z,27.63
2019-02-21T07:08:13.581Z,27.70
2019-02-21T07:10:40.645Z,27.00
2019-02-21T07:13:07.956Z,29.80
2019-02-21T07:15:35.109Z,23.33
2019-02-21T07:18:02.201Z,24.57
2019-02-21T07:20:30.721Z,28.43
2019-02-21T07:22:57.934Z,26.97
2019-02-21T07:25:44.852Z,20.03
2019-02-21T07:28:15.586Z,28.53
2019-02-21T07:30:42.934Z,41.90
2019-02-21T07:33:10.296Z,22.83
2019-02-21T07:35:37.389Z,22.57
2019-02-21T07:38:04.563Z,25.53
2019-02-21T07:40:31.776Z,30.57
2019-02-21T07:42:58.970Z,27.27
2019-02-21T07:45:26.280Z,29.30
2019-02-21T07:47:53.444Z,22.33
2019-02-21T07:50:23.065Z,27.17
2019-02-21T07:52:50.160Z,26.63
2019-02-21T07:55:17.338Z,26.77
2019-02-21T07:57:44.556Z,24.43
2019-02-21T08:00:12.338Z,26.17
2019-02-21T08:02:39.484Z,19.57
2019-02-21T08:05:06.846Z,19.47
2019-02-21T08:07:33.953Z,23.53
2019-02-21T08:10:01.163Z,25.27
2019-02-21T08:12:28.360Z,21.90
2019-02-21T08:14:56.366Z,23.80
2019-02-21T08:17:23.598Z,24.33
2019-02-21T08:19:50.792Z,21.37
2019-02-21T08:22:17.972Z,25.80
2019-02-21T08:24:46.068Z,33.10
2019-02-21T08:27:13.372Z,35.63
2019-02-21T08:29:40.537Z,28.00
2019-02-21T08:32:08.370Z,28.13
2019-02-21T08:34:39.752Z,29.30
2019-02-21T08:37:08.837Z,34.40
2019-02-21T08:39:36.138Z,38.37
2019-02-21T08:42:03.372Z,34.53
2019-02-21T08:44:30.578Z,33.03
2019-02-21T08:46:57.816Z,30.70
2019-02-21T08:49:24.982Z,29.97
2019-02-21T08:51:54.854Z,23.13
2019-02-21T08:54:21.334Z,28.47
2019-02-21T08:56:48.584Z,25.37
2019-02-21T08:59:15.744Z,25.57
2019-02-21T09:01:42.962Z,27.80
2019-02-21T09:04:24.115Z,30.67
2019-02-21T09:06:39.312Z,28.33
2019-02-21T09:09:07.136Z,30.53
2019-02-21T09:11:34.344Z,26.97
2019-02-21T09:14:01.484Z,28.70
2019-02-21T09:16:28.914Z,30.30
2019-02-21T09:18:56.069Z,27.60
2019-02-21T09:21:23.248Z,28.60
2019-02-21T09:23:50.438Z,26.60
2019-02-21T09:26:17.552Z,28.70
2019-02-21T09:28:44.731Z,26.57
2019-02-21T09:31:11.902Z,24.67
2019-02-21T09:33:39.432Z,29.33
2019-02-21T09:36:07.191Z,28.77
2019-02-21T09:38:34.965Z,30.47
2019-02-21T09:41:02.790Z,28.97
2019-02-21T09:43:29.980Z,28.33
2019-02-21T09:45:57.176Z,29.70
2019-02-21T09:48:24.362Z,28.97
2019-02-21T09:50:51.448Z,29.30
2019-02-21T09:53:18.655Z,25.10
2019-02-21T09:55:45.809Z,29.77
2019-02-21T09:58:13.150Z,27.03
2019-02-21T10:00:40.325Z,30.70
2019-02-21T10:03:07.591Z,26.60
2019-02-21T10:05:34.791Z,26.93
2019-02-21T10:08:01.974Z,28.87
2019-02-21T10:10:29.139Z,26.03
2019-02-21T10:12:56.573Z,35.30
2019-02-21T10:15:23.823Z,27.03
2019-02-21T10:17:51.082Z,33.93
2019-02-21T10:20:18.630Z,32.10
2019-02-21T10:22:45.863Z,30.00
2019-02-21T10:25:23.126Z,45.37
2019-02-21T10:27:50.261Z,30.93
2019-02-21T10:30:18.729Z,24.80
2019-02-21T10:32:45.879Z,27.20
2019-02-21T10:35:13.237Z,29.50
2019-02-21T10:37:40.504Z,26.43
2019-02-21T10:40:09.133Z,25.30
2019-02-21T10:42:36.581Z,24.83
2019-02-21T10:45:05.584Z,26.67
2019-02-21T10:47:32.865Z,32.23
2019-02-21T10:50:00.332Z,27.97
2019-02-21T10:52:27.756Z,23.90
2019-02-21T10:54:54.851Z,25.77
2019-02-21T10:57:22.056Z,38.17
2019-02-21T10:59:49.571Z,27.90
2019-02-21T11:02:17.227Z,27.87
2019-02-21T11:04:54.376Z,26.83
2019-02-21T11:07:13.947Z,25.60
2019-02-21T11:09:41.235Z,28.63
2019-02-21T11:12:08.867Z,25.30
2019-02-21T11:14:46.919Z,26.70
2019-02-21T11:17:05.115Z,45.37
2019-02-21T11:19:32.456Z,27.33
2019-02-21T11:21:59.601Z,31.40
2019-02-21T11:24:26.829Z,28.57
2019-02-21T11:26:54.041Z,25.47
2019-02-21T11:29:21.225Z,30.20
2019-02-21T11:31:48.439Z,27.57
2019-02-21T11:34:15.652Z,30.93
2019-02-21T11:36:42.815Z,28.33
2019-02-21T11:39:10.159Z,27.07
2019-02-21T11:41:37.252Z,27.20
2019-02-21T11:44:04.484Z,32.87
2019-02-21T11:46:31.698Z,27.40
2019-02-21T11:48:58.898Z,27.70
2019-02-21T11:51:26.080Z,26.50
2019-02-21T11:53:53.730Z,30.83
2019-02-21T11:56:20.912Z,27.03
2019-02-21T11:58:48.100Z,26.63
2019-02-21T12:01:15.294Z,30.97
2019-02-21T12:03:42.530Z,24.90
2019-02-21T12:06:09.720Z,32.77
2019-02-21T12:08:36.932Z,28.07
2019-02-21T12:11:04.144Z,29.83
2019-02-21T12:13:31.358Z,31.43
2019-02-21T12:15:59.157Z,30.30
2019-02-21T12:18:26.494Z,33.13
2019-02-21T12:20:53.610Z,28.77
2019-02-21T12:23:20.814Z,28.70
2019-02-21T12:25:48.373Z,29.20
2019-02-21T12:28:15.620Z,28.30
2019-02-21T12:30:42.822Z,26.23
2019-02-21T12:33:10.030Z,28.47
2019-02-21T12:35:37.243Z,27.20
2019-02-21T12:38:04.510Z,25.80
2019-02-21T12:40:31.799Z,28.27
2019-02-21T12:42:59.419Z,35.97
2019-02-21T12:45:26.557Z,30.30
2019-02-21T12:47:54.300Z,36.13
2019-02-21T12:50:22.287Z,32.00
2019-02-21T12:52:49.475Z,28.37
2019-02-21T12:55:27.350Z,30.63
2019-02-21T12:57:45.955Z,28.10
2019-02-21T13:00:15.977Z,29.10
2019-02-21T13:02:44.085Z,28.80
2019-02-21T13:05:11.760Z,25.13
2019-02-21T13:07:39.460Z,27.03
2019-02-21T13:10:09.585Z,30.67
2019-02-21T13:12:36.868Z,30.07
2019-02-21T13:15:04.878Z,26.80
2019-02-21T13:17:32.682Z,26.20
2019-02-21T13:19:59.854Z,34.33
2019-02-21T13:22:27.149Z,26.27
2019-02-21T13:24:54.727Z,30.73
2019-02-21T13:27:21.955Z,24.70
2019-02-21T13:29:49.548Z,29.37
2019-02-21T13:32:16.837Z,27.43
2019-02-21T13:34:43.960Z,35.73
2019-02-21T13:37:11.149Z,27.63
2019-02-21T13:39:38.382Z,29.20
2019-02-21T13:42:05.675Z,32.77
2019-02-21T13:44:34.010Z,23.63
2019-02-21T13:47:01.124Z,30.43
2019-02-21T13:49:28.407Z,28.27
2019-02-21T13:51:55.553Z,26.97
2019-02-21T13:54:22.729Z,26.70
2019-02-21T13:56:49.999Z,28.57
2019-02-21T13:59:17.184Z,31.90
2019-02-21T14:01:44.588Z,29.33
2019-02-21T14:04:11.770Z,30.40
2019-02-21T14:06:38.940Z,28.33
2019-02-21T14:09:06.751Z,25.13
2019-02-21T14:11:33.958Z,31.93
2019-02-21T14:14:01.131Z,21.57
2019-02-21T14:16:28.356Z,27.00
2019-02-21T14:18:56.119Z,26.53
2019-02-21T14:21:23.353Z,25.20
2019-02-21T14:23:50.524Z,24.57
2019-02-21T14:26:17.761Z,28.40
2019-02-21T14:28:44.886Z,27.43
2019-02-21T14:31:12.252Z,35.17
2019-02-21T14:33:39.353Z,41.90
2019-02-21T14:36:15.108Z,33.77
2019-02-21T14:38:37.905Z,27.53
2019-02-21T14:41:05.367Z,42.00
2019-02-21T14:43:32.606Z,28.90
2019-02-21T14:46:02.504Z,30.50
2019-02-21T14:48:29.885Z,28.30
2019-02-21T14:51:09.346Z,26.00
2019-02-21T14:53:36.561Z,27.03
2019-02-21T14:56:44.889Z,33.27
2019-02-21T15:02:32.711Z,29.80
2019-02-21T15:10:41.262Z,30.40
2019-02-21T15:13:08.495Z,24.03
2019-02-21T15:15:36.012Z,30.63
2019-02-21T15:18:43.943Z,31.47
2019-02-21T15:21:11.139Z,30.83
2019-02-21T15:26:37.677Z,30.20
2019-02-21T15:29:05.133Z,30.90
2019-02-21T15:35:12.339Z,34.90
2019-02-21T15:38:00.542Z,29.63
2019-02-21T15:41:29.032Z,37.33
2019-02-21T15:43:56.586Z,36.23
2019-02-21T15:46:23.806Z,31.43
2019-02-21T15:48:51.143Z,33.77
2019-02-21T15:51:18.824Z,30.20
2019-02-21T15:53:46.451Z,32.97
2019-02-21T15:56:13.671Z,30.30
2019-02-21T15:58:40.855Z,34.13
2019-02-21T16:01:08.058Z,33.67
2019-02-21T16:03:35.696Z,28.50
2019-02-21T16:06:02.810Z,26.67
2019-02-21T16:08:29.997Z,28.07
2019-02-21T16:10:57.264Z,32.90
2019-02-21T16:13:24.913Z,35.73
2019-02-21T16:15:52.444Z,29.53
2019-02-21T16:18:19.674Z,51.60
2019-02-21T16:20:47.194Z,27.50
2019-02-21T16:23:14.316Z,27.80
2019-02-21T16:25:41.617Z,27.60
2019-02-21T16:28:09.137Z,26.70
2019-02-21T16:30:36.315Z,39.10
2019-02-21T16:33:03.517Z,37.53
2019-02-21T16:35:30.576Z,30.17
2019-02-21T16:37:57.747Z,32.60
2019-02-21T16:40:25.646Z,28.90
2019-02-21T16:42:52.948Z,36.77
2019-02-21T16:45:20.132Z,32.80
2019-02-21T16:47:47.338Z,37.53
2019-02-21T16:50:14.521Z,29.83
2019-02-21T16:52:41.851Z,32.33
2019-02-21T16:55:11.470Z,27.73
2019-02-21T16:57:38.675Z,36.10
2019-02-21T17:00:07.284Z,31.87
2019-02-21T17:02:34.471Z,27.27
2019-02-21T17:05:01.568Z,33.13
2019-02-21T17:07:28.875Z,37.50
2019-02-21T17:09:56.088Z,33.40
2019-02-21T17:12:23.639Z,26.27
2019-02-21T17:14:51.216Z,31.23
2019-02-21T17:17:19.001Z,31.70
2019-02-21T17:19:46.208Z,35.23
2019-02-21T17:22:13.413Z,34.60
2019-02-21T17:24:40.588Z,33.10
2019-02-21T17:27:07.775Z,34.83
2019-02-21T17:29:35.058Z,35.57
2019-02-21T17:32:02.289Z,29.93
2019-02-21T17:34:29.586Z,35.80
2019-02-21T17:36:56.847Z,35.70
2019-02-21T17:39:24.067Z,33.73
2019-02-21T17:41:51.246Z,32.60
2019-02-21T17:44:18.468Z,39.50
2019-02-21T17:46:45.553Z,31.43
2019-02-21T17:49:12.714Z,36.50
2019-02-21T17:51:40.457Z,36.37
2019-02-21T17:54:07.679Z,38.33
2019-02-21T17:56:35.149Z,37.60
2019-02-21T17:59:02.633Z,35.97
2019-02-21T18:01:29.966Z,33.53
2019-02-21T18:03:57.494Z,35.17
2019-02-21T18:06:24.737Z,35.73
2019-02-21T18:08:54.893Z,35.37
2019-02-21T18:11:21.406Z,31.77
2019-02-21T18:13:48.631Z,26.50
2019-02-21T18:16:15.858Z,38.43
2019-02-21T18:18:43.040Z,34.30
2019-02-21T18:21:10.448Z,33.17
2019-02-21T18:23:37.669Z,30.67
2019-02-21T18:26:11.962Z,38.73
2019-02-21T18:28:39.115Z,37.87
2019-02-21T18:31:06.401Z,35.60
2019-02-21T18:33:33.497Z,33.93
2019-02-21T18:36:00.754Z,31.80
2019-02-21T18:38:27.975Z,31.90
2019-02-21T18:40:55.283Z,42.00
2019-02-21T18:43:23.137Z,39.63
2019-02-21T18:45:51.051Z,40.90
2019-02-21T18:48:18.303Z,39.60
2019-02-21T18:50:45.501Z,31.10
2019-02-21T18:53:13.089Z,37.03
2019-02-21T18:55:40.660Z,37.43
2019-02-21T18:58:08.273Z,32.67
2019-02-21T19:00:35.491Z,40.43
2019-02-21T19:03:02.681Z,43.93
2019-02-21T19:05:35.918Z,41.50
2019-02-21T19:08:05.264Z,37.77
2019-02-21T19:10:28.208Z,53.53
2019-02-21T19:12:55.622Z,39.77
2019-02-21T19:15:25.075Z,33.67
2019-02-21T19:17:52.190Z,38.90
2019-02-21T19:20:19.506Z,37.73
2019-02-21T19:22:46.674Z,34.70
2019-02-21T19:25:14.060Z,40.63
2019-02-21T19:27:41.301Z,40.17
2019-02-21T19:30:12.408Z,40.77
2019-02-21T19:32:39.806Z,38.83
2019-02-21T19:35:07.396Z,42.00
2019-02-21T19:37:34.598Z,33.43
2019-02-21T19:40:01.787Z,36.73
2019-02-21T19:42:29.319Z,36.97
2019-02-21T19:44:56.608Z,39.20
2019-02-21T19:47:23.770Z,34.97
2019-02-21T19:49:51.357Z,38.13
2019-02-21T19:52:18.443Z,42.80
2019-02-21T19:54:45.652Z,35.30
2019-02-21T19:57:12.852Z,40.47
2019-02-21T19:59:40.082Z,36.50
2019-02-21T20:02:07.344Z,41.40
2019-02-21T20:04:34.568Z,38.60
2019-02-21T20:07:01.786Z,37.13
2019-02-21T20:09:29.095Z,39.80
2019-02-21T20:11:56.600Z,47.57
2019-02-21T20:14:24.830Z,37.73
2019-02-21T20:16:52.028Z,40.17
2019-02-21T20:19:19.273Z,38.73
2019-02-21T20:21:46.451Z,40.03
2019-02-21T20:24:14.174Z,36.90
2019-02-21T20:26:41.376Z,40.73
2019-02-21T20:29:08.610Z,36.07
2019-02-21T20:31:35.808Z,36.90
2019-02-21T20:34:03.559Z,38.23
2019-02-21T20:36:30.811Z,37.80
2019-02-21T20:38:57.974Z,39.10
2019-02-21T20:41:25.297Z,33.70
2019-02-21T20:43:53.616Z,42.40
2019-02-21T20:46:20.796Z,34.57
2019-02-21T20:48:48.099Z,35.80
2019-02-21T20:51:15.362Z,41.23
2019-02-21T20:53:42.553Z,47.00
2019-02-21T20:56:10.176Z,42.43
2019-02-21T20:58:37.399Z,36.77
2019-02-21T21:01:06.841Z,37.53
2019-02-21T21:03:34.102Z,35.97
2019-02-21T21:06:01.468Z,45.07
2019-02-21T21:08:28.819Z,39.80
2019-02-21T21:10:56.063Z,42.97
2019-02-21T21:13:23.392Z,41.37
2019-02-21T21:15:50.492Z,41.23
2019-02-21T21:18:17.719Z,38.97
2019-02-21T21:20:44.793Z,40.73
2019-02-21T21:23:12.350Z,41.37
2019-02-21T21:25:39.716Z,42.73
2019-02-21T21:28:06.887Z,40.43
2019-02-21T21:30:34.102Z,46.93
2019-02-21T21:33:01.225Z,41.37
2019-02-21T21:35:28.767Z,41.97
2019-02-21T21:37:55.953Z,46.50
2019-02-21T21:40:23.189Z,44.07
2019-02-21T21:42:50.730Z,42.40
2019-02-21T21:45:18.462Z,43.00
2019-02-21T21:47:45.565Z,43.33
2019-02-21T21:50:14.243Z,40.67
2019-02-21T21:52:41.495Z,37.77
2019-02-21T21:55:08.942Z,42.00
2019-02-21T21:57:36.534Z,38.63
2019-02-21T22:00:05.373Z,42.47
2019-02-21T22:02:32.579Z,40.27
2019-02-21T22:05:00.316Z,38.60
2019-02-21T22:07:27.363Z,41.60
2019-02-21T22:09:54.755Z,45.40
2019-02-21T22:12:21.935Z,37.10
2019-02-21T22:14:49.509Z,41.90
2019-02-21T22:17:16.629Z,37.23
2019-02-21T22:19:43.809Z,40.23
2019-02-21T22:22:10.993Z,31.37
2019-02-21T22:24:38.331Z,39.73
2019-02-21T22:27:05.603Z,37.73
2019-02-21T22:29:32.805Z,35.37
2019-02-21T22:32:00.105Z,35.87
2019-02-21T22:34:27.317Z,38.60
2019-02-21T22:36:54.510Z,33.90
2019-02-21T22:39:21.732Z,36.27
2019-02-21T22:41:48.892Z,39.27
2019-02-21T22:44:16.002Z,41.57
2019-02-21T22:46:43.911Z,39.63
2019-02-21T22:49:11.086Z,38.53
2019-02-21T22:51:38.271Z,40.30
2019-02-21T22:54:05.597Z,36.40
2019-02-21T22:56:32.776Z,40.30
2019-02-21T22:59:00.044Z,39.90
2019-02-21T23:01:30.479Z,43.90
2019-02-21T23:04:38.163Z,39.97
2019-02-21T23:07:19.812Z,45.50
2019-02-21T23:09:46.972Z,42.90
2019-02-21T23:12:14.276Z,39.73
2019-02-21T23:14:41.567Z,50.27
2019-02-21T23:17:08.674Z,53.70
2019-02-21T23:19:35.885Z,48.93
2019-02-21T23:22:03.109Z,48.33
2019-02-21T23:24:30.269Z,44.97
2019-02-21T23:26:57.450Z,50.33
2019-02-21T23:29:24.638Z,48.00
2019-02-21T23:31:51.942Z,47.67
2019-02-21T23:34:29.902Z,45.70
2019-02-21T23:36:57.119Z,51.10
2019-02-21T23:39:24.331Z,52.07
2019-02-21T23:41:51.399Z,46.17
2019-02-21T23:44:18.685Z,43.10
2019-02-21T23:46:47.203Z,43.03
2019-02-21T23:49:14.529Z,46.70
2019-02-21T23:51:41.696Z,50.20
2019-02-21T23:54:08.882Z,50.23
2019-02-21T23:56:36.114Z,50.57
2019-02-21T23:59:03.774Z,46.73
